createdAt,value
2018-11-22T12:17:38.456Z,101344.02
2018-11-22T12:20:08.383Z,101347.98
2018-11-22T12:22:37.292Z,101351.05
2018-11-22T12:25:07.675Z,101340.92
2018-11-22T12:27:36.272Z,101346.09
2018-11-22T12:30:05.761Z,101344.58
2018-11-22T12:32:35.538Z,101332.59
2018-11-22T12:36:12.375Z,101337.30
2018-11-22T12:38:40.998Z,101339.59
2018-11-22T12:41:09.759Z,101333.25
2018-11-22T12:43:38.571Z,101334.75
2018-11-22T12:46:07.245Z,101331.16
2018-11-22T12:48:36.215Z,101336.65
2018-11-22T12:51:04.872Z,101336.07
2018-11-22T12:53:33.592Z,101333.33
2018-11-22T12:56:02.223Z,101328.93
2018-11-22T12:58:30.867Z,101326.32
2018-11-22T13:01:00.200Z,101327.23
2018-11-22T13:03:28.926Z,101324.50
2018-11-22T13:05:58.247Z,101319.97
2018-11-22T13:08:26.863Z,101322.02
2018-11-22T13:10:56.194Z,101317.66
2018-11-22T13:13:24.831Z,101317.45
2018-11-22T13:15:53.382Z,101315.89
2018-11-22T13:18:21.959Z,101316.03
2018-11-22T13:20:50.560Z,101312.31
2018-11-22T13:23:20.155Z,101312.83
2018-11-22T13:25:48.761Z,101312.30
2018-11-22T13:28:17.457Z,101319.30
2018-11-22T13:30:46.133Z,101316.94
2018-11-22T13:33:14.684Z,101316.80
2018-11-22T13:35:43.343Z,101317.65
2018-11-22T13:38:11.908Z,101316.60
2018-11-22T13:40:40.469Z,101314.01
2018-11-22T13:43:09.036Z,101314.73
2018-11-22T13:45:38.232Z,101304.34
2018-11-22T13:48:06.982Z,101318.59
2018-11-22T13:50:41.718Z,101316.36
2018-11-22T13:53:06.092Z,101314.30
2018-11-22T13:55:34.686Z,101317.16
2018-11-22T13:58:03.257Z,101320.28
2018-11-22T14:00:33.057Z,101317.63
2018-11-22T14:03:04.167Z,101313.37
2018-11-22T14:05:32.801Z,101318.33
2018-11-22T14:08:01.660Z,101308.15
2018-11-22T14:10:30.355Z,101313.50
2018-11-22T14:12:58.907Z,101315.27
2018-11-22T14:15:28.832Z,101310.39
2018-11-22T14:17:58.865Z,101313.48
2018-11-22T14:20:30.827Z,101313.16
2018-11-22T14:22:59.461Z,101308.42
2018-11-22T14:25:29.336Z,101309.21
2018-11-22T14:27:57.916Z,101297.47
2018-11-22T14:30:29.062Z,101300.58
2018-11-22T14:32:57.695Z,101303.86
2018-11-22T14:35:27.439Z,101303.52
2018-11-22T14:37:56.747Z,101302.61
2018-11-22T14:40:26.847Z,101300.66
2018-11-22T14:42:55.839Z,101300.19
2018-11-22T14:45:25.161Z,101297.14
2018-11-22T14:47:54.814Z,101295.36
2018-11-22T14:51:36.244Z,101295.94
2018-11-22T14:54:05.093Z,101307.23
2018-11-22T14:56:34.029Z,101298.17
2018-11-22T14:59:02.551Z,101300.84
2018-11-22T15:01:31.127Z,101301.77
2018-11-22T15:03:59.721Z,101299.86
2018-11-22T15:06:28.310Z,101295.56
2018-11-22T15:08:56.878Z,101294.19
2018-11-22T15:11:25.792Z,101299.49
2018-11-22T15:13:54.465Z,101304.84
2018-11-22T15:16:23.147Z,101300.97
2018-11-22T15:18:51.727Z,101306.85
2018-11-22T15:21:20.434Z,101306.59
2018-11-22T15:23:49.097Z,101312.54
2018-11-22T15:26:17.667Z,101309.84
2018-11-22T15:28:46.287Z,101304.03
2018-11-22T15:31:14.876Z,101307.23
2018-11-22T15:33:43.451Z,101311.14
2018-11-22T15:36:12.019Z,101309.34
2018-11-22T15:38:40.601Z,101308.53
2018-11-22T15:41:09.146Z,101313.58
2018-11-22T15:43:37.746Z,101318.59
2018-11-22T15:46:06.647Z,101309.34
2018-11-22T15:48:35.200Z,101310.06
2018-11-22T15:51:03.777Z,101304.95
2018-11-22T15:53:32.863Z,101303.91
2018-11-22T15:56:01.920Z,101307.36
2018-11-22T15:58:30.513Z,101305.22
2018-11-22T16:00:59.067Z,101306.47
2018-11-22T16:03:27.640Z,101311.95
2018-11-22T16:05:56.265Z,101306.27
2018-11-22T16:08:24.983Z,101310.31
2018-11-22T16:10:53.709Z,101301.64
2018-11-22T16:13:22.285Z,101313.26
2018-11-22T16:15:52.566Z,101306.38
2018-11-22T16:18:21.137Z,101307.58
2018-11-22T16:20:49.769Z,101300.80
2018-11-22T16:23:18.553Z,101305.22
2018-11-22T16:25:47.131Z,101308.88
2018-11-22T16:28:15.709Z,101310.88
2018-11-22T16:30:44.726Z,101314.23
2018-11-22T16:33:13.365Z,101309.66
2018-11-22T16:35:42.339Z,101313.00
2018-11-22T16:38:11.401Z,101315.13
2018-11-22T16:40:40.047Z,101313.58
2018-11-22T16:43:08.462Z,101303.77
2018-11-22T16:45:38.854Z,101303.98
2018-11-22T16:48:09.701Z,101306.95
2018-11-22T16:50:39.403Z,101309.93
2018-11-22T16:53:08.028Z,101310.97
2018-11-22T16:55:36.767Z,101311.35
2018-11-22T16:58:05.924Z,101307.89
2018-11-22T17:00:38.775Z,101304.69
2018-11-22T17:03:10.359Z,101303.70
2018-11-22T17:05:39.202Z,101300.08
2018-11-22T17:08:08.603Z,101305.66
2018-11-22T17:10:37.853Z,101305.34
2018-11-22T17:13:06.843Z,101297.38
2018-11-22T17:15:37.060Z,101302.47
2018-11-22T17:18:06.669Z,101307.31
2018-11-22T17:20:35.545Z,101301.30
2018-11-22T17:23:05.042Z,101306.83
2018-11-22T17:25:34.856Z,101302.67
2018-11-22T17:28:05.722Z,101299.16
2018-11-22T17:30:38.890Z,101297.25
2018-11-22T17:33:07.454Z,101299.23
2018-11-22T17:35:36.434Z,101299.14
2018-11-22T17:38:06.484Z,101300.91
2018-11-22T17:40:43.052Z,101299.95
2018-11-22T17:43:11.586Z,101300.53
2018-11-22T17:45:42.411Z,101304.23
2018-11-22T17:48:11.284Z,101304.45
2018-11-22T17:50:41.510Z,101310.62
2018-11-22T17:53:11.160Z,101314.53
2018-11-22T17:55:41.439Z,101313.50
2018-11-22T17:58:10.139Z,101314.22
2018-11-22T18:00:40.378Z,101314.87
2018-11-22T18:03:09.099Z,101319.05
2018-11-22T18:05:37.886Z,101311.81
2018-11-22T18:08:06.476Z,101316.05
2018-11-22T18:10:38.026Z,101315.13
2018-11-22T18:13:06.866Z,101311.09
2018-11-22T18:16:07.374Z,101321.06
2018-11-22T18:18:35.912Z,101323.80
2018-11-22T18:21:04.815Z,101317.67
2018-11-22T18:23:33.637Z,101326.67
2018-11-22T18:26:02.127Z,101326.14
2018-11-22T18:28:30.703Z,101330.33
2018-11-22T18:30:59.231Z,101326.22
2018-11-22T18:33:29.177Z,101324.11
2018-11-22T18:35:57.659Z,101325.70
2018-11-22T18:38:26.187Z,101319.24
2018-11-22T18:40:54.722Z,101316.68
2018-11-22T18:43:23.318Z,101317.16
2018-11-22T18:45:52.539Z,101318.64
2018-11-22T18:48:21.666Z,101310.11
2018-11-22T18:50:50.471Z,101317.99
2018-11-22T18:53:19.242Z,101320.61
2018-11-22T18:55:47.746Z,101315.98
2018-11-22T18:58:16.411Z,101310.95
2018-11-22T19:00:46.075Z,101311.81
2018-11-22T19:03:16.347Z,101313.97
2018-11-22T19:05:45.810Z,101319.52
2018-11-22T19:08:14.308Z,101321.77
2018-11-22T19:10:43.681Z,101323.88
2018-11-22T19:13:12.799Z,101325.23
2018-11-22T19:15:42.957Z,101316.17
2018-11-22T19:18:13.054Z,101319.84
2018-11-22T19:20:43.240Z,101317.16
2018-11-22T19:23:12.760Z,101323.41
2018-11-22T19:25:41.456Z,101323.87
2018-11-22T19:28:10.294Z,101322.39
2018-11-22T19:30:42.632Z,101323.80
2018-11-22T19:33:12.963Z,101327.00
2018-11-22T19:35:43.128Z,101334.23
2018-11-22T19:38:12.087Z,101334.12
2018-11-22T19:40:41.523Z,101328.66
2018-11-22T19:43:10.778Z,101329.61
2018-11-22T19:45:41.918Z,101324.72
2018-11-22T19:48:11.040Z,101326.02
2018-11-22T19:50:40.336Z,101324.46
2018-11-22T19:53:11.252Z,101325.31
2018-11-22T19:55:40.410Z,101323.55
2018-11-22T19:58:11.174Z,101319.16
2018-11-22T20:00:39.734Z,101317.63
2018-11-22T20:03:09.137Z,101317.14
2018-11-22T20:05:39.242Z,101317.95
2018-11-22T20:08:09.520Z,101323.87
2018-11-22T20:10:39.525Z,101326.53
2018-11-22T20:13:08.071Z,101327.33
2018-11-22T20:15:36.604Z,101328.17
2018-11-22T20:18:06.763Z,101325.69
2018-11-22T20:20:35.371Z,101326.95
2018-11-22T20:23:03.976Z,101323.80
2018-11-22T20:25:32.528Z,101332.94
2018-11-22T20:28:01.660Z,101325.44
2018-11-22T20:30:32.457Z,101327.45
2018-11-22T20:33:01.366Z,101328.17
2018-11-22T20:35:30.758Z,101324.00
2018-11-22T20:37:59.383Z,101330.98
2018-11-22T20:40:28.437Z,101327.09
2018-11-22T20:42:57.331Z,101328.87
2018-11-22T20:45:26.974Z,101332.54
2018-11-22T20:47:57.870Z,101328.37
2018-11-22T20:50:27.390Z,101333.59
2018-11-22T20:52:56.502Z,101331.00
2018-11-22T20:55:27.305Z,101327.09
2018-11-22T20:57:57.195Z,101328.30
2018-11-22T21:00:27.077Z,101332.80
2018-11-22T21:02:55.648Z,101333.47
2018-11-22T21:05:24.819Z,101330.51
2018-11-22T21:07:53.360Z,101325.06
2018-11-22T21:10:23.178Z,101329.69
2018-11-22T21:12:51.890Z,101330.14
2018-11-22T21:15:22.855Z,101325.63
2018-11-22T21:17:52.809Z,101326.16
2018-11-22T21:20:23.140Z,101321.99
2018-11-22T21:22:51.620Z,101321.26
2018-11-22T21:25:20.982Z,101317.80
2018-11-22T21:27:49.645Z,101312.73
2018-11-22T21:30:21.218Z,101317.48
2018-11-22T21:32:50.476Z,101320.56
2018-11-22T21:35:19.478Z,101312.13
2018-11-22T21:37:48.586Z,101311.69
2018-11-22T21:40:17.873Z,101314.66
2018-11-22T21:42:46.476Z,101312.83
2018-11-22T21:45:16.681Z,101318.58
2018-11-22T21:47:45.326Z,101324.25
2018-11-22T21:50:15.019Z,101321.19
2018-11-22T21:52:43.706Z,101319.38
2018-11-22T21:55:18.951Z,101312.73
2018-11-22T21:57:47.983Z,101312.95
2018-11-22T22:00:39.232Z,101311.66
2018-11-22T22:03:09.289Z,101316.03
2018-11-22T22:05:38.204Z,101309.83
2018-11-22T22:08:07.113Z,101307.73
2018-11-22T22:10:35.871Z,101311.25
2018-11-22T22:13:04.744Z,101311.16
2018-11-22T22:15:34.384Z,101313.09
2018-11-22T22:18:03.066Z,101304.09
2018-11-22T22:20:32.994Z,101306.91
2018-11-22T22:23:01.522Z,101309.06
2018-11-22T22:25:30.621Z,101311.09
2018-11-22T22:27:59.511Z,101303.05
2018-11-22T22:30:29.345Z,101308.09
2018-11-22T22:32:59.302Z,101309.51
2018-11-22T22:35:27.827Z,101309.17
2018-11-22T22:37:56.588Z,101305.34
2018-11-22T22:40:26.573Z,101309.30
2018-11-22T22:42:56.144Z,101309.64
2018-11-22T22:45:25.712Z,101300.94
2018-11-22T22:47:54.603Z,101304.85
2018-11-22T22:50:24.469Z,101313.27
2018-11-22T22:52:54.398Z,101313.49
2018-11-22T22:55:22.960Z,101309.52
2018-11-22T22:57:51.507Z,101316.62
2018-11-22T23:00:27.231Z,101317.80
2018-11-22T23:03:00.333Z,101316.23
2018-11-22T23:05:29.774Z,101312.43
2018-11-22T23:07:58.349Z,101303.70
2018-11-22T23:10:27.193Z,101305.94
2018-11-22T23:12:56.654Z,101313.86
2018-11-22T23:15:26.282Z,101299.11
2018-11-22T23:17:54.910Z,101304.72
2018-11-22T23:20:25.818Z,101295.49
2018-11-22T23:22:54.661Z,101300.14
2018-11-22T23:25:24.248Z,101297.21
2018-11-22T23:27:52.776Z,101300.94
2018-11-22T23:30:27.186Z,101301.80
2018-11-22T23:32:57.373Z,101296.14
2018-11-22T23:35:26.071Z,101301.95
2018-11-22T23:37:54.927Z,101303.76
2018-11-22T23:40:24.714Z,101306.87
2018-11-22T23:42:53.306Z,101296.50
2018-11-22T23:45:23.083Z,101294.11
2018-11-22T23:47:51.647Z,101304.94
2018-11-22T23:50:22.564Z,101301.87
2018-11-22T23:52:52.487Z,101292.95
2018-11-22T23:55:22.302Z,101298.53
2018-11-22T23:57:50.838Z,101301.64
